Pomerene, Arizona
Current Conditions -  °F | °C
As of 9:56 AM on Saturday 22 Nov 2014 (Local Time) from KALK Reporting Station
Clear Clear  
Wind Chill: 56°   Ceiling: Unl
Heat Index: 56°   Visibility: 10mi
Dew Point: 24°   Wind: 0mph
Humidity: 29%   Direction: NA
Pressure: 30.17"   Gusts: NA
Location:  32°N, 110.29°W
Report Text: KALK 221656Z AUTO 00000KT 10SM CLR 13/M04 A3017 RMK AO2 SLP164 T01331044 TSNO
Loading
Personal Weather Stations






























Interactive Weather Map New forecast layout! Learn more

10-Day Weather Forecast

Advertisements
Track Severe Weather on mobile